Time;durP1;ratioP1;P1;durP2;ratioP2;P2;SDS_P1;SDS_P2;PMS_P1;PMS_P2;Temp;Humidity;BMP_temperature;BMP_pressure;BME280_temperature;BME280_humidity;BME280_pressure;Samples;Min_cycle;Max_cycle;Signal;HPM_P1;HPM_P2
2024/01/14 00:02:14;;;;;;;672.17;637.97;;;1.70;99.90;;;;;;5068122;28;20476;-65
2024/01/14 00:04:41;;;;;;;675.20;639.60;;;1.70;99.90;;;;;;5072556;28;20462;-67
2024/01/14 00:07:08;;;;;;;661.53;628.33;;;1.70;99.90;;;;;;5072096;28;20489;-66
2024/01/14 00:09:35;;;;;;;644.03;611.63;;;1.70;99.90;;;;;;5072024;28;20978;-66
2024/01/14 00:12:02;;;;;;;647.53;614.57;;;1.70;99.90;;;;;;5072502;28;20494;-67
2024/01/14 00:14:30;;;;;;;669.67;633.33;;;1.70;99.90;;;;;;5072280;28;20478;-66
2024/01/14 00:16:57;;;;;;;623.73;591.90;;;1.70;99.90;;;;;;5072091;28;20449;-66
2024/01/14 00:19:24;;;;;;;643.80;611.03;;;1.70;99.90;;;;;;5063514;28;20465;-66
2024/01/14 00:21:50;;;;;;;631.77;599.30;;;1.70;99.90;;;;;;5060429;28;20456;-66
2024/01/14 00:24:17;;;;;;;642.73;607.97;;;1.70;99.90;;;;;;5060130;28;20452;-66
2024/01/14 00:26:44;;;;;;;621.13;588.80;;;1.70;99.90;;;;;;5059959;28;20475;-68
2024/01/14 00:29:11;;;;;;;630.47;596.30;;;1.70;99.90;;;;;;5051586;28;20446;-66
2024/01/14 00:31:39;;;;;;;618.23;586.37;;;1.70;99.90;;;;;;5054019;28;20458;-66
2024/01/14 00:34:05;;;;;;;606.97;574.80;;;1.70;99.90;;;;;;5071769;28;20455;-66
2024/01/14 00:36:38;;;;;;;616.07;584.17;;;1.70;99.90;;;;;;5063520;28;20477;-66
2024/01/14 00:39:04;;;;;;;604.20;573.00;;;1.70;99.90;;;;;;5064115;28;20454;-68
2024/01/14 00:41:31;;;;;;;604.03;573.57;;;1.70;99.90;;;;;;5052393;28;20449;-66
2024/01/14 00:43:58;;;;;;;603.10;571.17;;;1.70;99.90;;;;;;5051233;28;20816;-67
2024/01/14 00:46:25;;;;;;;584.43;554.93;;;1.70;99.90;;;;;;5053352;28;20856;-66
2024/01/14 00:48:53;;;;;;;587.00;555.10;;;1.70;99.90;;;;;;5052628;28;20453;-66
2024/01/14 00:51:20;;;;;;;579.60;549.63;;;1.70;99.90;;;;;;5051810;28;20465;-67
2024/01/14 00:53:47;;;;;;;565.70;536.80;;;1.70;99.90;;;;;;5063127;28;21262;-66
2024/01/14 00:56:14;;;;;;;565.13;537.23;;;1.70;99.90;;;;;;5055852;28;20450;-66
2024/01/14 00:58:40;;;;;;;561.53;532.93;;;1.70;99.90;;;;;;5055858;28;20454;-66
2024/01/14 01:01:07;;;;;;;543.50;517.23;;;1.80;99.90;;;;;;5055977;28;20464;-66
2024/01/14 01:03:34;;;;;;;564.10;536.27;;;1.70;99.90;;;;;;5055607;28;20481;-66
2024/01/14 01:06:02;;;;;;;577.87;547.63;;;1.70;99.90;;;;;;5053849;28;20452;-66
2024/01/14 01:08:29;;;;;;;565.57;538.27;;;1.70;99.90;;;;;;5054994;28;20443;-65
2024/01/14 01:10:56;;;;;;;556.77;529.27;;;1.80;99.90;;;;;;5054875;28;20438;-66
2024/01/14 01:13:23;;;;;;;561.03;532.57;;;1.70;99.90;;;;;;5055519;28;20468;-67
2024/01/14 01:15:50;;;;;;;554.70;526.57;;;1.70;99.90;;;;;;5055353;28;20447;-66
2024/01/14 01:18:17;;;;;;;558.53;530.27;;;1.80;99.90;;;;;;5055324;28;20450;-68
2024/01/14 01:20:43;;;;;;;550.40;523.23;;;1.80;99.90;;;;;;5055250;28;20450;-66
2024/01/14 01:23:11;;;;;;;551.10;523.60;;;1.70;99.90;;;;;;5055169;28;20470;-66
2024/01/14 01:25:38;;;;;;;567.77;539.97;;;1.80;99.90;;;;;;5055431;28;20447;-66
2024/01/14 01:28:06;;;;;;;564.33;535.83;;;1.70;99.90;;;;;;5054715;28;20478;-68
2024/01/14 01:30:32;;;;;;;572.93;543.23;;;1.80;99.90;;;;;;5064016;28;20530;-67
2024/01/14 01:32:59;;;;;;;563.47;534.37;;;1.70;99.90;;;;;;5060699;28;20481;-66
2024/01/14 01:35:26;;;;;;;582.27;552.50;;;1.70;99.90;;;;;;5057633;28;20949;-66
2024/01/14 01:37:53;;;;;;;583.00;553.20;;;1.70;99.90;;;;;;5054791;28;20454;-67
2024/01/14 01:40:21;;;;;;;599.63;568.77;;;1.70;99.90;;;;;;5054850;28;20449;-66
2024/01/14 01:42:49;;;;;;;587.40;557.33;;;1.70;99.90;;;;;;5054987;28;20474;-67
2024/01/14 01:45:16;;;;;;;560.57;531.47;;;1.70;99.90;;;;;;5054991;28;20455;-67
2024/01/14 01:47:43;;;;;;;598.17;567.93;;;1.70;99.90;;;;;;5054688;28;20827;-67
2024/01/14 01:50:11;;;;;;;599.13;567.47;;;1.60;99.90;;;;;;5054516;28;20445;-67
2024/01/14 01:52:39;;;;;;;585.87;555.67;;;1.60;99.90;;;;;;5062994;28;20530;-67
2024/01/14 01:55:07;;;;;;;576.10;546.57;;;1.60;99.90;;;;;;5054891;28;20457;-66
2024/01/14 01:57:36;;;;;;;554.57;526.73;;;1.60;99.90;;;;;;5054799;28;20840;-66
2024/01/14 02:00:03;;;;;;;560.80;531.87;;;1.60;99.90;;;;;;5054701;28;20453;-67
2024/01/14 02:02:32;;;;;;;561.03;532.27;;;1.60;99.90;;;;;;5054584;28;20470;-67
2024/01/14 02:04:59;;;;;;;557.07;528.57;;;1.60;99.90;;;;;;5054306;28;20455;-67
2024/01/14 02:07:25;;;;;;;553.10;525.30;;;1.60;99.90;;;;;;5054108;28;21080;-67
2024/01/14 02:09:53;;;;;;;553.03;526.23;;;1.60;99.90;;;;;;5054251;28;20846;-67
2024/01/14 02:12:20;;;;;;;546.57;519.57;;;1.60;99.90;;;;;;5054405;28;20477;-66
2024/01/14 02:14:48;;;;;;;556.53;527.97;;;1.60;99.90;;;;;;5054492;28;20887;-67
2024/01/14 02:17:15;;;;;;;544.47;516.97;;;1.60;99.90;;;;;;5054119;28;20913;-67
2024/01/14 02:19:42;;;;;;;557.40;530.13;;;1.60;99.90;;;;;;5054015;28;20492;-66
2024/01/14 02:22:14;;;;;;;544.57;517.77;;;1.70;99.90;;;;;;5054460;28;20475;-67
2024/01/14 02:24:42;;;;;;;531.57;504.47;;;1.70;99.90;;;;;;5054171;28;20458;-67
2024/01/14 02:27:10;;;;;;;531.33;505.30;;;1.70;99.90;;;;;;5053978;28;20472;-67
2024/01/14 02:29:39;;;;;;;521.00;495.60;;;1.70;99.90;;;;;;5061919;28;20447;-67
2024/01/14 02:32:06;;;;;;;524.30;497.80;;;1.70;99.90;;;;;;5053688;28;20469;-66
2024/01/14 02:34:35;;;;;;;526.83;500.17;;;1.70;99.90;;;;;;5054163;28;20450;-66
2024/01/14 02:37:02;;;;;;;496.53;471.77;;;1.80;99.90;;;;;;5053799;28;20459;-67
2024/01/14 02:39:29;;;;;;;511.67;486.37;;;1.70;99.90;;;;;;5053848;28;20847;-66
2024/01/14 02:41:57;;;;;;;487.17;463.87;;;1.60;99.90;;;;;;5054912;28;20500;-66
2024/01/14 02:44:24;;;;;;;518.67;494.00;;;1.60;99.90;;;;;;5054540;28;20455;-67
2024/01/14 02:46:50;;;;;;;492.80;469.80;;;1.60;99.90;;;;;;5053841;28;20484;-67
2024/01/14 02:49:17;;;;;;;494.90;471.77;;;1.60;99.90;;;;;;5054026;28;20476;-67
2024/01/14 02:51:45;;;;;;;519.97;495.93;;;1.60;99.90;;;;;;5053378;28;20481;-67
2024/01/14 02:54:12;;;;;;;513.47;489.27;;;1.60;99.90;;;;;;5054311;28;20462;-67
2024/01/14 02:56:39;;;;;;;502.63;478.23;;;1.60;99.90;;;;;;5053409;28;20446;-67
2024/01/14 02:59:07;;;;;;;505.70;482.13;;;1.60;99.90;;;;;;5053046;28;20457;-67
2024/01/14 03:01:34;;;;;;;491.53;468.43;;;1.60;99.90;;;;;;5053571;28;20459;-67
2024/01/14 03:04:00;;;;;;;510.73;487.07;;;1.60;99.90;;;;;;5053818;28;20448;-67
2024/01/14 03:06:27;;;;;;;477.13;455.63;;;1.60;99.90;;;;;;5053235;28;20954;-66
2024/01/14 03:08:54;;;;;;;493.03;470.47;;;1.60;99.90;;;;;;5053278;28;20945;-67
2024/01/14 03:11:21;;;;;;;482.97;460.73;;;1.60;99.90;;;;;;5053222;28;20829;-66
2024/01/14 03:13:47;;;;;;;470.73;450.17;;;1.60;99.90;;;;;;5053142;28;20476;-67
2024/01/14 03:16:16;;;;;;;483.23;460.97;;;1.60;99.90;;;;;;5053446;28;20450;-68
2024/01/14 03:18:42;;;;;;;490.77;466.27;;;1.60;99.90;;;;;;5053410;28;20446;-67
2024/01/14 03:21:16;;;;;;;507.00;482.10;;;1.60;99.90;;;;;;5053110;28;20958;-67
2024/01/14 03:23:43;;;;;;;473.73;451.83;;;1.60;99.90;;;;;;5053087;28;20476;-66
2024/01/14 03:26:09;;;;;;;498.57;475.27;;;1.60;99.90;;;;;;5052934;28;20490;-67
2024/01/14 03:28:36;;;;;;;492.20;469.07;;;1.60;99.90;;;;;;5052636;28;20476;-66
2024/01/14 03:31:04;;;;;;;488.40;464.10;;;1.60;99.90;;;;;;5052972;28;20837;-67
2024/01/14 03:33:34;;;;;;;494.73;469.63;;;1.60;99.90;;;;;;5052943;28;20848;-67
2024/01/14 03:36:01;;;;;;;508.27;483.50;;;1.60;99.90;;;;;;5052786;28;20462;-67
2024/01/14 03:38:28;;;;;;;481.30;457.50;;;1.60;99.90;;;;;;5053297;28;20445;-66
2024/01/14 03:40:55;;;;;;;509.80;484.97;;;1.60;99.90;;;;;;5052304;28;20452;-66
2024/01/14 03:43:21;;;;;;;543.67;516.97;;;1.50;99.90;;;;;;5052949;28;20484;-66
2024/01/14 03:45:48;;;;;;;564.60;535.97;;;1.50;99.90;;;;;;5053615;28;20453;-66
2024/01/14 03:48:15;;;;;;;591.20;562.00;;;1.40;99.90;;;;;;5052417;28;20480;-66
2024/01/14 03:50:43;;;;;;;551.97;525.67;;;1.40;99.90;;;;;;5052768;28;20458;-67
2024/01/14 03:53:10;;;;;;;569.03;540.63;;;1.40;99.90;;;;;;5052306;28;20990;-67
2024/01/14 03:55:37;;;;;;;591.20;561.90;;;1.40;99.90;;;;;;5052796;28;20447;-67
2024/01/14 03:58:04;;;;;;;525.80;502.80;;;1.40;99.90;;;;;;5053406;28;20453;-67
2024/01/14 04:00:30;;;;;;;553.40;526.13;;;1.40;99.90;;;;;;5052216;28;20450;-66
2024/01/14 04:02:57;;;;;;;570.97;543.67;;;1.40;99.90;;;;;;5052330;28;20464;-67
2024/01/14 04:05:24;;;;;;;574.83;546.63;;;1.40;99.90;;;;;;5052330;28;20462;-66
2024/01/14 04:07:55;;;;;;;565.10;536.83;;;1.40;99.90;;;;;;5052759;28;20475;-67
2024/01/14 04:10:22;;;;;;;548.33;521.17;;;1.50;99.90;;;;;;5052957;28;20453;-66
2024/01/14 04:12:49;;;;;;;526.97;502.50;;;1.50;99.90;;;;;;5052476;28;20866;-66
2024/01/14 04:15:16;;;;;;;522.23;496.33;;;1.50;99.90;;;;;;5053100;28;20459;-66
2024/01/14 04:17:42;;;;;;;537.50;511.43;;;1.50;99.90;;;;;;5063475;28;20448;-66
2024/01/14 04:20:10;;;;;;;547.20;520.27;;;1.50;99.90;;;;;;5058552;28;20461;-66
2024/01/14 04:22:37;;;;;;;552.07;525.17;;;1.40;99.90;;;;;;5060246;28;20481;-67
2024/01/14 04:25:06;;;;;;;554.93;528.27;;;1.40;99.90;;;;;;5052066;28;20458;-66
2024/01/14 04:27:34;;;;;;;578.47;549.07;;;1.40;99.90;;;;;;5050525;28;20476;-66
2024/01/14 04:30:01;;;;;;;586.13;556.83;;;1.40;99.90;;;;;;5052025;28;20458;-66
2024/01/14 04:32:28;;;;;;;589.80;559.47;;;1.40;99.90;;;;;;5051973;28;20485;-67
2024/01/14 04:34:54;;;;;;;574.87;547.07;;;1.40;99.90;;;;;;5051828;28;20991;-67
2024/01/14 04:37:21;;;;;;;591.43;561.47;;;1.40;99.90;;;;;;5051899;28;20983;-67
2024/01/14 04:39:48;;;;;;;584.23;555.67;;;1.40;99.90;;;;;;5052126;28;20816;-67
2024/01/14 04:42:16;;;;;;;579.70;549.13;;;1.40;99.90;;;;;;5051966;28;20469;-67
2024/01/14 04:44:43;;;;;;;603.13;574.00;;;1.40;99.90;;;;;;5051847;28;20450;-67
2024/01/14 04:47:10;;;;;;;604.83;573.83;;;1.40;99.90;;;;;;5051957;28;20456;-67
2024/01/14 04:49:37;;;;;;;581.83;553.87;;;1.40;99.90;;;;;;5051939;28;20456;-66
2024/01/14 04:52:04;;;;;;;590.33;560.97;;;1.40;99.90;;;;;;5052053;28;20557;-66
2024/01/14 04:54:31;;;;;;;601.27;571.73;;;1.40;99.90;;;;;;5051700;28;20844;-67
2024/01/14 04:56:58;;;;;;;568.70;541.20;;;1.40;99.90;;;;;;5051672;28;20519;-66
2024/01/14 04:59:26;;;;;;;593.77;565.27;;;1.40;99.90;;;;;;5051516;28;20452;-67
2024/01/14 05:01:53;;;;;;;590.67;561.17;;;1.40;99.90;;;;;;5051752;28;20861;-66
2024/01/14 05:04:20;;;;;;;562.07;536.10;;;1.30;99.90;;;;;;5051843;28;20474;-66
2024/01/14 05:06:47;;;;;;;568.40;540.40;;;1.40;99.90;;;;;;5051398;28;20827;-67
2024/01/14 05:09:14;;;;;;;544.27;518.47;;;1.40;99.90;;;;;;5052503;28;20480;-67
2024/01/14 05:11:41;;;;;;;549.00;523.27;;;1.40;99.90;;;;;;5050406;28;20518;-67
2024/01/14 05:14:07;;;;;;;571.00;543.50;;;1.40;99.90;;;;;;5051511;28;20826;-66
2024/01/14 05:16:35;;;;;;;551.80;524.80;;;1.60;99.90;;;;;;5050973;28;20448;-66
2024/01/14 05:19:02;;;;;;;529.77;504.80;;;1.50;99.90;;;;;;5051454;28;20448;-67
2024/01/14 05:21:29;;;;;;;531.20;505.50;;;1.40;99.90;;;;;;5051362;28;20453;-66
2024/01/14 05:23:55;;;;;;;529.97;504.57;;;1.40;99.90;;;;;;5050864;28;20473;-67
2024/01/14 05:26:24;;;;;;;523.90;499.27;;;1.40;99.90;;;;;;5050998;28;20829;-67
2024/01/14 05:28:51;;;;;;;491.20;468.90;;;1.40;99.90;;;;;;5051219;28;20498;-67
2024/01/14 05:31:18;;;;;;;483.97;461.53;;;1.40;99.90;;;;;;5051788;28;20451;-67
2024/01/14 05:33:46;;;;;;;492.80;470.30;;;1.40;99.90;;;;;;5051560;28;20487;-67
2024/01/14 05:36:13;;;;;;;501.60;478.30;;;1.40;99.90;;;;;;5051241;28;20444;-70
2024/01/14 05:38:40;;;;;;;494.27;472.23;;;1.40;99.90;;;;;;5051259;28;20844;-71
2024/01/14 05:41:07;;;;;;;493.83;472.20;;;1.40;99.90;;;;;;5056366;28;20541;-69
2024/01/14 05:43:33;;;;;;;485.63;464.30;;;1.40;99.90;;;;;;5054325;28;20467;-67
2024/01/14 05:46:00;;;;;;;472.67;451.57;;;1.40;99.90;;;;;;5054968;28;20447;-66
2024/01/14 05:48:27;;;;;;;474.00;453.53;;;1.40;99.90;;;;;;5055126;28;20513;-67
2024/01/14 05:50:55;;;;;;;464.47;444.37;;;1.40;99.90;;;;;;5058566;28;20468;-67
2024/01/14 05:53:22;;;;;;;481.50;458.80;;;1.40;99.90;;;;;;5053470;28;20482;-67
2024/01/14 05:55:49;;;;;;;466.00;444.30;;;1.40;99.90;;;;;;5062761;28;20451;-66
2024/01/14 05:58:15;;;;;;;501.27;477.40;;;1.40;99.90;;;;;;5054369;28;20451;-67
2024/01/14 06:00:42;;;;;;;506.40;483.03;;;1.40;99.90;;;;;;5054921;28;20457;-66
2024/01/14 06:03:09;;;;;;;492.03;469.93;;;1.40;99.90;;;;;;5054141;28;20985;-66
2024/01/14 06:05:36;;;;;;;503.47;479.30;;;1.40;99.90;;;;;;5054711;28;20529;-67
2024/01/14 06:08:05;;;;;;;503.47;480.23;;;1.40;99.90;;;;;;5060389;28;20478;-67
2024/01/14 06:10:32;;;;;;;486.23;463.53;;;1.40;99.90;;;;;;5057899;28;20449;-66
2024/01/14 06:12:58;;;;;;;472.67;451.07;;;1.40;99.90;;;;;;5060583;28;20474;-67
2024/01/14 06:15:25;;;;;;;483.30;460.60;;;1.40;99.90;;;;;;5054664;28;20447;-67
2024/01/14 06:17:52;;;;;;;483.70;461.47;;;1.40;99.90;;;;;;5054418;28;20443;-67
2024/01/14 06:20:19;;;;;;;476.77;455.47;;;1.40;99.90;;;;;;5055115;28;20550;-67
2024/01/14 06:22:46;;;;;;;486.90;465.83;;;1.30;99.90;;;;;;5046022;28;20478;-67
2024/01/14 06:25:14;;;;;;;497.47;474.40;;;1.30;99.90;;;;;;5054041;28;21029;-66
2024/01/14 06:27:41;;;;;;;494.97;472.07;;;1.30;99.90;;;;;;5053838;28;20448;-66
2024/01/14 06:30:09;;;;;;;524.13;500.13;;;1.30;99.90;;;;;;5054818;28;20475;-67
2024/01/14 06:32:35;;;;;;;511.07;486.57;;;1.30;99.90;;;;;;5053963;28;21003;-67
2024/01/14 06:35:03;;;;;;;489.17;466.23;;;1.30;99.90;;;;;;5054108;28;20456;-66
2024/01/14 06:37:29;;;;;;;486.10;464.30;;;1.30;99.90;;;;;;5054448;28;20527;-67
2024/01/14 06:39:56;;;;;;;483.30;461.10;;;1.30;99.90;;;;;;5054199;28;20449;-67
2024/01/14 06:42:24;;;;;;;493.87;470.27;;;1.30;99.90;;;;;;5054065;28;20464;-66
2024/01/14 06:44:51;;;;;;;508.63;484.00;;;1.30;99.90;;;;;;5053730;28;20453;-70
2024/01/14 06:47:18;;;;;;;486.23;464.77;;;1.30;99.90;;;;;;5054439;28;20452;-67
2024/01/14 06:49:45;;;;;;;490.27;467.07;;;1.30;99.90;;;;;;5052658;28;20482;-67
2024/01/14 06:52:12;;;;;;;475.63;454.20;;;1.30;99.90;;;;;;5052890;28;20502;-67
2024/01/14 06:54:40;;;;;;;478.50;456.53;;;1.30;99.90;;;;;;5052553;28;20490;-67
2024/01/14 06:57:07;;;;;;;443.10;422.60;;;1.30;99.90;;;;;;5053470;28;20490;-66
2024/01/14 06:59:37;;;;;;;448.40;428.67;;;1.40;99.90;;;;;;5053046;28;20532;-67
2024/01/14 07:02:04;;;;;;;437.00;417.30;;;1.40;99.90;;;;;;5053585;28;20562;-67
2024/01/14 07:04:31;;;;;;;443.33;422.60;;;1.30;99.90;;;;;;5052954;28;20452;-71
2024/01/14 07:06:58;;;;;;;464.13;443.47;;;1.30;99.90;;;;;;5053231;28;20452;-67
2024/01/14 07:09:25;;;;;;;449.70;429.60;;;1.40;99.90;;;;;;5053380;28;20478;-66
2024/01/14 07:11:51;;;;;;;423.37;405.47;;;1.30;99.90;;;;;;5052199;28;20459;-67
2024/01/14 07:14:18;;;;;;;437.70;417.93;;;1.30;99.90;;;;;;5053056;28;20456;-66
2024/01/14 07:16:47;;;;;;;444.10;423.90;;;1.30;99.90;;;;;;5052622;28;20475;-66
2024/01/14 07:19:13;;;;;;;418.20;399.60;;;1.30;99.90;;;;;;5053131;28;20529;-66
2024/01/14 07:21:40;;;;;;;419.80;401.63;;;1.30;99.90;;;;;;5052344;28;20467;-67
2024/01/14 07:24:07;;;;;;;418.33;400.17;;;1.30;99.90;;;;;;5053481;28;20463;-66
2024/01/14 07:26:34;;;;;;;408.60;391.30;;;1.30;99.90;;;;;;5053108;28;20568;-67
2024/01/14 07:29:01;;;;;;;412.17;394.57;;;1.30;99.90;;;;;;5052532;28;20478;-71
2024/01/14 07:31:30;;;;;;;372.67;358.17;;;1.30;99.90;;;;;;5053015;28;20448;-67
2024/01/14 07:33:58;;;;;;;380.70;364.40;;;1.30;99.90;;;;;;5052678;28;20463;-67
2024/01/14 07:36:25;;;;;;;395.10;378.67;;;1.40;99.90;;;;;;5052769;28;20446;-67
2024/01/14 07:38:52;;;;;;;375.77;359.80;;;1.30;99.90;;;;;;5051678;28;20443;-66
2024/01/14 07:41:19;;;;;;;360.70;345.73;;;1.40;99.90;;;;;;5051908;28;20564;-68
2024/01/14 07:43:46;;;;;;;364.80;349.50;;;1.40;99.90;;;;;;5050546;28;21088;-67
2024/01/14 07:46:13;;;;;;;368.23;352.73;;;1.40;99.90;;;;;;5052165;28;20859;-67
2024/01/14 07:48:41;;;;;;;352.20;337.47;;;1.40;99.90;;;;;;5051411;28;20471;-66
2024/01/14 07:51:09;;;;;;;347.43;333.03;;;1.40;99.90;;;;;;5063010;28;20455;-67
2024/01/14 07:53:36;;;;;;;351.53;337.33;;;1.40;99.90;;;;;;5052880;28;20482;-66
2024/01/14 07:56:04;;;;;;;342.70;328.93;;;1.40;99.90;;;;;;5051798;28;20511;-66
2024/01/14 07:58:30;;;;;;;343.83;329.43;;;1.40;99.90;;;;;;5051393;28;20440;-67
2024/01/14 08:00:57;;;;;;;342.53;328.07;;;1.40;99.90;;;;;;5052552;28;20496;-69
2024/01/14 08:03:24;;;;;;;329.17;315.87;;;1.50;99.90;;;;;;5050392;28;20559;-67
2024/01/14 08:05:51;;;;;;;338.60;323.90;;;1.40;99.90;;;;;;5052089;28;20450;-67
2024/01/14 08:08:20;;;;;;;338.83;324.13;;;1.40;99.90;;;;;;5052849;28;20514;-68
2024/01/14 08:10:48;;;;;;;341.77;327.43;;;1.40;99.90;;;;;;5047678;28;20824;-68
2024/01/14 08:13:15;;;;;;;321.67;308.83;;;1.40;99.90;;;;;;5052486;28;20467;-67
2024/01/14 08:15:42;;;;;;;332.50;318.57;;;1.40;99.90;;;;;;5052706;28;20450;-67
2024/01/14 08:18:09;;;;;;;316.13;302.97;;;1.40;99.90;;;;;;5052041;28;20450;-67
2024/01/14 08:20:36;;;;;;;326.87;313.47;;;1.40;99.90;;;;;;5051993;28;20449;-66
2024/01/14 08:23:03;;;;;;;322.27;309.07;;;1.40;99.90;;;;;;5051700;28;20466;-67
2024/01/14 08:25:31;;;;;;;316.53;303.37;;;1.40;99.90;;;;;;5050415;28;20450;-67
2024/01/14 08:27:58;;;;;;;310.23;297.93;;;1.40;99.90;;;;;;5052090;28;20453;-67
2024/01/14 08:30:25;;;;;;;297.40;285.20;;;1.40;99.90;;;;;;5051135;28;20474;-67
2024/01/14 08:32:52;;;;;;;296.10;284.70;;;1.40;99.90;;;;;;5052203;28;20928;-67
2024/01/14 08:35:19;;;;;;;294.40;282.80;;;1.40;99.90;;;;;;5052148;28;20458;-67
2024/01/14 08:37:46;;;;;;;300.37;288.77;;;1.40;99.90;;;;;;5047753;28;20448;-67
2024/01/14 08:40:14;;;;;;;293.30;282.00;;;1.40;99.90;;;;;;5051960;28;20451;-67
2024/01/14 08:42:44;;;;;;;290.00;278.60;;;1.40;99.90;;;;;;5051933;28;20479;-67
2024/01/14 08:45:12;;;;;;;288.67;277.50;;;1.50;99.90;;;;;;5047120;28;21263;-68
2024/01/14 08:47:39;;;;;;;284.97;274.37;;;1.40;99.90;;;;;;5053557;28;20498;-67
2024/01/14 08:50:09;;;;;;;279.17;268.00;;;1.40;99.90;;;;;;5057447;28;20477;-67
2024/01/14 08:52:38;;;;;;;273.10;262.20;;;1.40;99.90;;;;;;5053750;28;20819;-68
2024/01/14 08:55:07;;;;;;;270.07;259.03;;;1.50;99.90;;;;;;5054059;28;20452;-66
2024/01/14 08:57:33;;;;;;;268.73;258.20;;;1.50;99.90;;;;;;5050429;28;20453;-68
2024/01/14 09:00:02;;;;;;;263.03;252.93;;;1.50;99.90;;;;;;5050689;28;20476;-67
2024/01/14 09:02:28;;;;;;;262.53;252.53;;;1.50;99.90;;;;;;5050784;28;21037;-67
2024/01/14 09:04:55;;;;;;;263.97;253.40;;;1.50;99.90;;;;;;5051062;28;20829;-65
2024/01/14 09:07:22;;;;;;;252.07;242.13;;;1.50;99.90;;;;;;5050954;28;20822;-66
2024/01/14 09:09:49;;;;;;;243.97;234.93;;;1.50;99.90;;;;;;5050935;28;20469;-67
2024/01/14 09:12:19;;;;;;;246.30;236.57;;;1.50;99.90;;;;;;5051320;28;20481;-67
2024/01/14 09:14:46;;;;;;;237.90;228.33;;;1.50;99.90;;;;;;5046159;28;20444;-67
2024/01/14 09:17:14;;;;;;;238.30;229.20;;;1.50;99.90;;;;;;5055694;28;20452;-67
2024/01/14 09:19:41;;;;;;;230.90;221.50;;;1.50;99.90;;;;;;5055609;28;20929;-67
2024/01/14 09:22:08;;;;;;;247.03;238.53;;;1.40;99.90;;;;;;5055553;28;20503;-67
2024/01/14 09:24:34;;;;;;;274.53;264.33;;;1.20;99.90;;;;;;5055717;28;20455;-67
2024/01/14 09:27:03;;;;;;;297.03;285.30;;;1.10;99.90;;;;;;5055334;28;20533;-67
2024/01/14 09:29:30;;;;;;;311.07;299.97;;;0.90;99.90;;;;;;5055938;28;20480;-67
2024/01/14 09:31:57;;;;;;;353.93;340.23;;;0.90;99.90;;;;;;5055448;28;20867;-66
2024/01/14 09:34:25;;;;;;;400.97;385.20;;;0.90;99.90;;;;;;5055882;28;20474;-66
2024/01/14 09:36:52;;;;;;;407.57;390.77;;;1.00;99.90;;;;;;5055052;28;20528;-67
2024/01/14 09:39:19;;;;;;;445.67;426.77;;;1.00;99.90;;;;;;5055411;28;20808;-66
2024/01/14 09:41:53;;;;;;;416.13;400.67;;;1.00;99.90;;;;;;5046999;28;20838;-66
2024/01/14 09:44:20;;;;;;;341.33;328.87;;;1.00;99.90;;;;;;5055154;28;20451;-65
2024/01/14 09:46:48;;;;;;;295.03;283.93;;;1.00;99.90;;;;;;5055131;28;20447;-65
2024/01/14 09:49:17;;;;;;;256.43;246.33;;;1.00;99.90;;;;;;5054646;28;20474;-66
2024/01/14 09:51:47;;;;;;;276.93;266.00;;;1.00;99.90;;;;;;5054601;28;20532;-67
2024/01/14 09:54:14;;;;;;;255.33;245.13;;;1.10;99.90;;;;;;5055453;28;20454;-67
2024/01/14 09:56:42;;;;;;;266.43;255.67;;;1.10;99.90;;;;;;5055110;28;20456;-68
2024/01/14 09:59:10;;;;;;;255.37;245.03;;;1.10;99.90;;;;;;5054832;28;20456;-67
2024/01/14 10:01:40;;;;;;;232.33;223.57;;;1.20;99.90;;;;;;5054378;28;20501;-67
2024/01/14 10:04:08;;;;;;;220.47;211.60;;;1.20;99.90;;;;;;5054780;28;20454;-67
2024/01/14 10:06:36;;;;;;;198.53;189.77;;;1.20;99.90;;;;;;5055132;28;20465;-66
2024/01/14 10:09:04;;;;;;;195.93;187.53;;;1.20;99.90;;;;;;5054651;28;20478;-66
2024/01/14 10:11:31;;;;;;;173.10;165.77;;;1.30;99.90;;;;;;5054704;28;20541;-67
2024/01/14 10:13:58;;;;;;;159.73;152.97;;;1.30;99.90;;;;;;5054577;28;20999;-66
2024/01/14 10:16:25;;;;;;;154.80;148.30;;;1.30;99.90;;;;;;5054318;28;20446;-66
2024/01/14 10:18:55;;;;;;;138.20;132.13;;;1.30;99.90;;;;;;5054673;28;20459;-67
2024/01/14 10:21:22;;;;;;;146.40;140.03;;;1.30;99.90;;;;;;5055189;28;20449;-66
2024/01/14 10:23:48;;;;;;;140.37;134.37;;;1.30;99.90;;;;;;5054684;28;20478;-66
2024/01/14 10:26:17;;;;;;;145.37;139.37;;;1.30;99.90;;;;;;5054401;28;20451;-66
2024/01/14 10:28:45;;;;;;;146.43;139.50;;;1.30;99.90;;;;;;5054803;28;20457;-66
2024/01/14 10:31:12;;;;;;;157.03;150.43;;;1.40;99.90;;;;;;5054067;28;20474;-66
2024/01/14 10:33:42;;;;;;;211.20;203.10;;;1.40;99.90;;;;;;5054763;28;20502;-67
2024/01/14 10:36:09;;;;;;;228.10;219.50;;;1.30;99.90;;;;;;5054364;28;20516;-66
2024/01/14 10:38:38;;;;;;;224.13;215.97;;;1.40;99.90;;;;;;5054063;28;20455;-66
2024/01/14 10:41:05;;;;;;;209.57;201.97;;;1.40;99.90;;;;;;5053895;28;20447;-68
2024/01/14 10:43:34;;;;;;;187.23;180.13;;;1.40;99.90;;;;;;5053796;28;21131;-67
2024/01/14 10:46:03;;;;;;;172.77;165.93;;;1.40;99.90;;;;;;5053897;28;20450;-67
2024/01/14 10:48:32;;;;;;;176.50;169.40;;;1.40;99.90;;;;;;5054132;28;20456;-67
2024/01/14 10:51:03;;;;;;;169.60;162.70;;;1.50;99.90;;;;;;5054386;28;20481;-67
2024/01/14 10:53:36;;;;;;;154.30;147.83;;;1.50;99.90;;;;;;5054074;28;21001;-67
2024/01/14 10:56:04;;;;;;;141.13;135.17;;;1.50;99.90;;;;;;5054283;28;20476;-66
2024/01/14 10:58:37;;;;;;;127.63;122.03;;;1.50;99.90;;;;;;5053424;28;20450;-66
2024/01/14 11:01:08;;;;;;;131.97;125.77;;;1.50;99.90;;;;;;5053872;28;20540;-67
2024/01/14 11:03:36;;;;;;;113.67;108.83;;;1.50;99.90;;;;;;5053894;28;20474;-67
2024/01/14 11:06:05;;;;;;;118.57;112.57;;;1.50;99.90;;;;;;5053785;28;20461;-66
2024/01/14 11:08:34;;;;;;;116.97;111.97;;;1.60;99.90;;;;;;5069046;28;20938;-66
2024/01/14 11:11:02;;;;;;;118.33;112.33;;;1.60;99.90;;;;;;5073340;28;21061;-66
2024/01/14 11:13:38;;;;;;;109.80;105.20;;;1.60;99.90;;;;;;5072262;28;20480;-67
2024/01/14 11:16:14;;;;;;;98.43;93.33;;;1.60;99.90;;;;;;5053851;28;20461;-67
2024/01/14 11:18:48;;;;;;;94.27;90.13;;;1.50;99.90;;;;;;5061708;28;20508;-67
2024/01/14 11:21:26;;;;;;;103.17;98.07;;;1.50;99.90;;;;;;5053226;28;20459;-67
2024/01/14 11:23:53;;;;;;;103.90;98.80;;;1.50;99.90;;;;;;5046687;28;20498;-67
2024/01/14 11:26:20;;;;;;;106.20;101.60;;;1.40;99.90;;;;;;5053668;28;20464;-67
2024/01/14 11:28:49;;;;;;;118.47;113.63;;;1.30;99.90;;;;;;5044911;28;20451;-66
2024/01/14 11:31:17;;;;;;;117.23;112.13;;;1.30;99.90;;;;;;5053306;28;20563;-66
2024/01/14 11:33:46;;;;;;;123.73;118.07;;;1.30;99.90;;;;;;5052768;28;20476;-67
2024/01/14 11:36:14;;;;;;;123.53;118.30;;;1.30;99.90;;;;;;5052869;28;20453;-67
2024/01/14 11:38:56;;;;;;;154.07;147.67;;;1.20;99.90;;;;;;5052826;28;20458;-66
2024/01/14 11:41:28;;;;;;;168.47;161.37;;;1.20;99.90;;;;;;5053158;28;20446;-67
2024/01/14 11:43:58;;;;;;;145.57;140.17;;;1.30;99.90;;;;;;5051244;28;20478;-67
2024/01/14 11:46:42;;;;;;;143.10;137.30;;;1.30;99.90;;;;;;5052953;28;20871;-67
2024/01/14 11:49:10;;;;;;;164.77;158.37;;;1.30;99.90;;;;;;5052651;28;20461;-67
2024/01/14 11:51:41;;;;;;;130.30;125.20;;;1.40;99.90;;;;;;5053169;28;20461;-68
2024/01/14 11:54:09;;;;;;;138.43;132.27;;;1.40;99.90;;;;;;5053529;28;20911;-65
2024/01/14 11:56:36;;;;;;;150.90;144.60;;;1.50;99.90;;;;;;5052342;28;20454;-66
2024/01/14 11:59:08;;;;;;;136.07;130.57;;;1.50;99.90;;;;;;5052950;28;20503;-66
2024/01/14 12:01:36;;;;;;;113.47;108.13;;;1.60;99.90;;;;;;5052947;28;20449;-65
2024/01/14 12:04:03;;;;;;;113.83;108.73;;;1.70;99.90;;;;;;5052898;28;20477;-66
2024/01/14 12:06:37;;;;;;;88.07;83.70;;;1.70;99.90;;;;;;5052705;28;20455;-66
2024/01/14 12:09:04;;;;;;;75.63;72.07;;;1.80;99.90;;;;;;5052507;28;20453;-66
2024/01/14 12:11:31;;;;;;;75.13;71.23;;;1.80;99.90;;;;;;5052688;28;20928;-66
2024/01/14 12:13:58;;;;;;;64.20;60.57;;;1.90;99.90;;;;;;5052285;28;21043;-66
2024/01/14 12:16:26;;;;;;;54.50;51.23;;;1.90;99.90;;;;;;5052477;28;20973;-65
2024/01/14 12:18:53;;;;;;;59.30;56.13;;;1.80;99.90;;;;;;5052762;28;20841;-65
2024/01/14 12:21:21;;;;;;;54.40;51.73;;;1.80;99.90;;;;;;5052954;28;20447;-66